createdAt,value
2023-05-15T00:00:39.636Z,9.30
2023-05-15T00:03:13.903Z,9.20
2023-05-15T00:05:49.391Z,9.10
2023-05-15T00:08:23.682Z,9.10
2023-05-15T00:11:01.523Z,9.10
2023-05-15T00:13:36.269Z,9.10
2023-05-15T00:16:10.739Z,9.10
2023-05-15T00:18:44.928Z,9.10
2023-05-15T00:21:20.759Z,9.00
2023-05-15T00:23:54.994Z,9.00
2023-05-15T00:26:29.204Z,9.00
2023-05-15T00:29:03.365Z,8.90
2023-05-15T00:31:37.655Z,8.90
2023-05-15T00:34:11.802Z,8.90
2023-05-15T00:36:47.502Z,8.90
2023-05-15T00:39:21.575Z,8.90
2023-05-15T00:41:57.293Z,8.90
2023-05-15T00:44:33.259Z,8.90
2023-05-15T00:47:08.846Z,8.80
2023-05-15T00:49:44.447Z,8.80
2023-05-15T00:52:21.474Z,8.80
2023-05-15T00:54:55.616Z,8.80
2023-05-15T00:57:32.346Z,8.80
2023-05-15T01:00:10.521Z,8.80
2023-05-15T01:02:45.226Z,8.80
2023-05-15T01:05:19.606Z,8.80
2023-05-15T01:08:09.842Z,8.90
2023-05-15T01:10:45.380Z,8.90
2023-05-15T01:13:22.025Z,8.90
2023-05-15T01:15:56.934Z,8.90
2023-05-15T01:18:33.135Z,9.00
2023-05-15T01:21:35.448Z,9.10
2023-05-15T01:24:42.601Z,9.10
2023-05-15T01:27:31.570Z,9.20
2023-05-15T01:30:16.061Z,9.20
2023-05-15T01:32:57.738Z,9.20
2023-05-15T01:35:38.029Z,9.20
2023-05-15T01:38:20.961Z,9.30
2023-05-15T01:41:04.110Z,9.40
2023-05-15T01:43:43.800Z,9.40
2023-05-15T01:46:23.353Z,9.40
2023-05-15T01:48:59.336Z,9.50
2023-05-15T01:51:34.522Z,9.50
2023-05-15T01:54:09.650Z,9.50
2023-05-15T01:56:45.271Z,9.50
2023-05-15T01:59:22.371Z,9.60
2023-05-15T02:01:58.248Z,9.60
2023-05-15T02:04:34.067Z,9.60
2023-05-15T02:07:08.599Z,9.60
2023-05-15T02:09:43.760Z,9.60
2023-05-15T02:12:18.369Z,9.70
2023-05-15T02:14:54.250Z,9.60
2023-05-15T02:17:29.487Z,9.60
2023-05-15T02:20:04.934Z,9.70
2023-05-15T02:22:39.163Z,9.70
2023-05-15T02:25:13.248Z,9.70
2023-05-15T02:27:54.477Z,9.70
2023-05-15T02:30:39.967Z,9.70
2023-05-15T02:33:27.368Z,9.70
2023-05-15T02:36:06.782Z,9.70
2023-05-15T02:38:48.938Z,9.80
2023-05-15T02:41:24.280Z,9.70
2023-05-15T02:44:00.249Z,9.80
2023-05-15T02:46:37.327Z,9.80
2023-05-15T02:49:12.672Z,9.80
2023-05-15T02:51:46.892Z,9.80
2023-05-15T02:54:21.652Z,9.80
2023-05-15T02:56:55.780Z,9.80
2023-05-15T02:59:30.072Z,9.80
2023-05-15T03:02:06.049Z,9.80
2023-05-15T03:04:40.237Z,9.80
2023-05-15T03:07:15.257Z,9.80
2023-05-15T03:09:49.650Z,9.80
2023-05-15T03:12:23.755Z,9.90
2023-05-15T03:14:58.066Z,9.90
2023-05-15T03:17:33.522Z,9.90
2023-05-15T03:20:09.823Z,9.90
2023-05-15T03:22:44.078Z,9.90
2023-05-15T03:25:18.425Z,9.90
2023-05-15T03:27:52.603Z,9.90
2023-05-15T03:30:26.707Z,9.90
2023-05-15T03:33:03.880Z,9.90
2023-05-15T03:35:38.122Z,9.80
2023-05-15T03:38:12.286Z,9.80
2023-05-15T03:40:46.748Z,9.80
2023-05-15T03:43:21.616Z,9.80
2023-05-15T03:45:55.804Z,9.80
2023-05-15T03:48:31.225Z,9.80
2023-05-15T03:51:05.629Z,9.80
2023-05-15T03:53:40.125Z,9.90
2023-05-15T03:56:14.300Z,9.90
2023-05-15T03:58:48.348Z,9.90
2023-05-15T04:01:22.452Z,9.90
2023-05-15T04:03:57.970Z,9.90
2023-05-15T04:06:32.081Z,9.90
2023-05-15T04:09:06.242Z,9.90
2023-05-15T04:11:40.286Z,9.90
2023-05-15T04:14:14.763Z,10.00
2023-05-15T04:16:48.871Z,10.00
2023-05-15T04:19:24.393Z,10.00
2023-05-15T04:21:58.593Z,10.00
2023-05-15T04:24:32.656Z,10.00
2023-05-15T04:27:07.206Z,10.10
2023-05-15T04:29:41.361Z,10.10
2023-05-15T04:32:15.538Z,10.10
2023-05-15T04:34:51.123Z,10.20
2023-05-15T04:37:25.462Z,10.20
2023-05-15T04:39:59.597Z,10.30
2023-05-15T04:42:33.746Z,10.40
2023-05-15T04:45:10.277Z,10.40
2023-05-15T04:47:44.525Z,10.50
2023-05-15T04:50:20.088Z,10.60
2023-05-15T04:52:54.256Z,10.70
2023-05-15T04:55:28.393Z,10.60
2023-05-15T04:58:02.472Z,10.60
2023-05-15T05:00:36.605Z,10.70
2023-05-15T05:03:10.860Z,10.80
2023-05-15T05:05:46.484Z,10.80
2023-05-15T05:08:20.572Z,10.90
2023-05-15T05:10:58.146Z,11.10
2023-05-15T05:13:32.290Z,11.20
2023-05-15T05:16:07.710Z,11.30
2023-05-15T05:18:41.939Z,11.40
2023-05-15T05:21:17.889Z,11.50
2023-05-15T05:23:52.012Z,11.50
2023-05-15T05:26:27.246Z,11.70
2023-05-15T05:29:01.398Z,11.90
2023-05-15T05:31:35.457Z,12.20
2023-05-15T05:34:09.886Z,12.40
2023-05-15T05:36:45.313Z,12.60
2023-05-15T05:39:20.090Z,12.80
2023-05-15T05:41:54.269Z,13.00
2023-05-15T05:44:28.370Z,13.10
2023-05-15T05:47:02.611Z,13.20
2023-05-15T05:49:36.707Z,13.20
2023-05-15T05:52:12.558Z,13.20
2023-05-15T05:54:48.166Z,13.30
2023-05-15T05:57:22.364Z,13.40
2023-05-15T05:59:56.469Z,13.30
2023-05-15T06:02:31.259Z,13.30
2023-05-15T06:05:07.428Z,13.30
2023-05-15T06:07:43.215Z,13.40
2023-05-15T06:10:17.448Z,13.50
2023-05-15T06:12:51.494Z,13.60
2023-05-15T06:15:26.306Z,13.90
2023-05-15T06:18:00.607Z,13.90
2023-05-15T06:20:35.372Z,13.90
2023-05-15T06:23:10.951Z,13.90
2023-05-15T06:25:45.034Z,13.80
2023-05-15T06:28:19.192Z,13.80
2023-05-15T06:30:54.107Z,13.70
2023-05-15T06:33:28.183Z,13.50
2023-05-15T06:36:02.744Z,13.30
2023-05-15T06:38:38.174Z,13.20
2023-05-15T06:41:12.398Z,13.30
2023-05-15T06:43:46.551Z,13.30
2023-05-15T06:46:21.132Z,13.30
2023-05-15T06:48:55.259Z,13.40
2023-05-15T06:51:29.467Z,13.30
2023-05-15T06:54:05.258Z,13.30
2023-05-15T06:56:39.406Z,13.30
2023-05-15T06:59:13.682Z,13.40
2023-05-15T07:01:47.938Z,13.50
2023-05-15T07:04:22.079Z,13.40
2023-05-15T07:06:56.158Z,13.50
2023-05-15T07:09:32.017Z,13.50
2023-05-15T07:12:06.918Z,13.60
2023-05-15T07:14:41.154Z,13.60
2023-05-15T07:17:15.309Z,13.90
2023-05-15T07:19:49.397Z,14.10
2023-05-15T07:22:23.484Z,14.30
2023-05-15T07:24:58.934Z,14.50
2023-05-15T07:27:33.044Z,14.70
2023-05-15T07:30:09.005Z,14.90
2023-05-15T07:32:43.265Z,15.20
2023-05-15T07:35:18.460Z,15.40
2023-05-15T07:37:52.597Z,15.60
2023-05-15T07:40:28.136Z,15.50
2023-05-15T07:43:02.256Z,15.40
2023-05-15T07:45:36.472Z,15.30
2023-05-15T07:48:19.003Z,15.40
2023-05-15T07:50:53.839Z,15.40
2023-05-15T07:53:27.993Z,15.40
2023-05-15T07:56:03.606Z,15.50
2023-05-15T07:58:38.379Z,15.70
2023-05-15T08:01:12.631Z,15.90
2023-05-15T08:03:46.753Z,16.10
2023-05-15T08:06:20.854Z,16.00
2023-05-15T08:08:55.082Z,15.80
2023-05-15T08:11:30.619Z,15.50
2023-05-15T08:14:04.768Z,15.30
2023-05-15T08:16:38.907Z,15.20
2023-05-15T08:19:13.193Z,15.00
2023-05-15T08:21:47.301Z,14.90
2023-05-15T08:24:21.437Z,14.90
2023-05-15T08:26:56.850Z,15.00
2023-05-15T08:29:30.959Z,15.10
2023-05-15T08:32:06.383Z,15.20
2023-05-15T08:34:40.527Z,15.30
2023-05-15T08:37:14.624Z,15.40
2023-05-15T08:39:48.777Z,15.60
2023-05-15T08:42:29.884Z,16.10
2023-05-15T08:45:04.922Z,16.50
2023-05-15T08:47:42.139Z,16.90
2023-05-15T08:50:18.046Z,17.20
2023-05-15T08:52:53.375Z,17.40
2023-05-15T08:55:27.718Z,17.40
2023-05-15T08:58:03.822Z,17.10
2023-05-15T09:00:38.004Z,16.90
2023-05-15T09:03:18.681Z,17.20
2023-05-15T09:05:53.904Z,17.60
2023-05-15T09:08:31.044Z,18.20
2023-05-15T09:11:07.929Z,18.60
2023-05-15T09:13:43.472Z,19.10
2023-05-15T09:16:17.665Z,19.10
2023-05-15T09:18:53.799Z,19.30
2023-05-15T09:21:29.713Z,19.20
2023-05-15T09:24:28.276Z,19.10
2023-05-15T09:27:04.119Z,19.10
2023-05-15T09:29:41.463Z,18.90
2023-05-15T09:32:16.680Z,18.80
2023-05-15T09:34:50.930Z,19.00
2023-05-15T09:37:32.892Z,19.20
2023-05-15T09:40:11.949Z,19.20
2023-05-15T09:42:53.190Z,19.10
2023-05-15T09:45:30.250Z,19.10
2023-05-15T09:48:07.285Z,18.90
2023-05-15T09:50:42.488Z,19.20
2023-05-15T09:53:21.399Z,19.60
2023-05-15T09:55:56.199Z,20.00
2023-05-15T09:58:30.268Z,20.20
2023-05-15T10:01:12.624Z,20.20
2023-05-15T10:03:58.127Z,20.00
2023-05-15T10:06:36.940Z,20.10
2023-05-15T10:09:12.872Z,20.20
2023-05-15T10:11:53.980Z,20.20
2023-05-15T10:14:31.617Z,20.00
2023-05-15T10:17:07.591Z,19.80
2023-05-15T10:19:56.735Z,19.60
2023-05-15T10:22:33.899Z,19.70
2023-05-15T10:25:14.733Z,19.40
2023-05-15T10:27:51.464Z,19.00
2023-05-15T10:30:26.889Z,19.10
2023-05-15T10:33:03.584Z,19.10
2023-05-15T10:35:39.406Z,19.00
2023-05-15T10:38:14.745Z,18.70
2023-05-15T10:40:49.460Z,18.80
2023-05-15T10:43:24.304Z,18.90
2023-05-15T10:45:59.048Z,19.20
2023-05-15T10:48:34.968Z,19.60
2023-05-15T10:51:17.025Z,19.90
2023-05-15T10:53:52.530Z,19.70
2023-05-15T10:56:31.050Z,19.50
2023-05-15T10:59:08.765Z,19.30
2023-05-15T11:01:43.352Z,19.10
2023-05-15T11:04:20.266Z,19.00
2023-05-15T11:07:14.009Z,18.90
2023-05-15T11:09:48.357Z,18.70
2023-05-15T11:12:23.165Z,18.50
2023-05-15T11:15:20.045Z,18.50
2023-05-15T11:18:05.571Z,18.60
2023-05-15T11:20:43.176Z,18.60
2023-05-15T11:23:17.421Z,18.50
2023-05-15T11:25:57.372Z,18.40
2023-05-15T11:28:31.740Z,18.30
2023-05-15T11:31:08.217Z,18.20
2023-05-15T11:33:42.489Z,18.20
2023-05-15T11:36:18.513Z,18.20
2023-05-15T11:38:53.768Z,18.50
2023-05-15T11:41:33.342Z,18.90
2023-05-15T11:44:07.564Z,19.30
2023-05-15T11:46:44.083Z,19.40
2023-05-15T11:49:20.681Z,19.40
2023-05-15T11:51:56.260Z,19.30
2023-05-15T11:54:31.562Z,19.20
2023-05-15T11:57:08.996Z,19.30
2023-05-15T11:59:43.182Z,19.50
2023-05-15T12:02:18.178Z,19.60
2023-05-15T12:04:52.408Z,19.60
2023-05-15T12:07:28.278Z,19.60
2023-05-15T12:10:03.384Z,19.90
2023-05-15T12:12:37.738Z,20.10
2023-05-15T12:15:13.191Z,20.00
2023-05-15T12:17:47.511Z,20.20
2023-05-15T12:20:21.807Z,20.20
2023-05-15T12:22:58.716Z,20.00
2023-05-15T12:25:34.430Z,19.80
2023-05-15T12:28:08.836Z,19.90
2023-05-15T12:30:44.245Z,20.30
2023-05-15T12:33:18.995Z,20.80
2023-05-15T12:36:01.178Z,21.10
2023-05-15T12:38:37.737Z,21.10
2023-05-15T12:41:13.049Z,21.20
2023-05-15T12:43:47.246Z,21.30
2023-05-15T12:46:24.926Z,21.00
2023-05-15T12:49:00.271Z,20.80
2023-05-15T12:51:34.465Z,20.70
2023-05-15T12:54:18.988Z,20.60
2023-05-15T12:56:53.459Z,20.40
2023-05-15T12:59:28.225Z,20.30
2023-05-15T13:02:02.780Z,20.30
2023-05-15T13:04:36.991Z,20.20
2023-05-15T13:07:12.450Z,20.50
2023-05-15T13:10:03.377Z,20.70
2023-05-15T13:12:38.678Z,20.90
2023-05-15T13:15:26.856Z,21.40
2023-05-15T13:18:01.791Z,21.50
2023-05-15T13:20:37.716Z,21.50
2023-05-15T13:23:15.067Z,21.40
2023-05-15T13:25:50.720Z,21.20
2023-05-15T13:28:24.820Z,21.20
2023-05-15T13:30:59.039Z,21.20
2023-05-15T13:33:34.089Z,21.20
2023-05-15T13:36:08.999Z,21.60
2023-05-15T13:38:43.177Z,21.80
2023-05-15T13:41:18.730Z,21.50
2023-05-15T13:43:52.814Z,20.90
2023-05-15T13:46:27.141Z,20.50
2023-05-15T13:49:01.268Z,20.50
2023-05-15T13:51:35.401Z,20.50
2023-05-15T13:54:09.798Z,20.80
2023-05-15T13:56:45.317Z,20.90
2023-05-15T13:59:19.444Z,20.70
2023-05-15T14:01:53.768Z,20.40
2023-05-15T14:04:28.115Z,20.20
2023-05-15T14:07:02.377Z,20.10
2023-05-15T14:09:36.681Z,19.90
2023-05-15T14:12:12.332Z,19.70
2023-05-15T14:14:47.819Z,19.60
2023-05-15T14:17:23.244Z,19.60
2023-05-15T14:19:57.420Z,19.50
2023-05-15T14:22:31.583Z,19.50
2023-05-15T14:25:07.217Z,19.60
2023-05-15T14:27:42.700Z,19.70
2023-05-15T14:30:16.908Z,20.10
2023-05-15T14:32:51.070Z,20.20
2023-05-15T14:35:25.417Z,20.20
2023-05-15T14:37:59.550Z,19.90
2023-05-15T14:40:34.086Z,19.80
2023-05-15T14:43:09.569Z,19.60
2023-05-15T14:45:43.731Z,19.60
2023-05-15T14:48:17.998Z,19.60
2023-05-15T14:50:52.506Z,19.50
2023-05-15T14:53:26.674Z,19.40
2023-05-15T14:56:00.882Z,19.20
2023-05-15T14:58:36.330Z,19.00
2023-05-15T15:01:10.538Z,19.00
2023-05-15T15:03:44.895Z,18.80
2023-05-15T15:06:19.591Z,18.70
2023-05-15T15:08:53.718Z,18.60
2023-05-15T15:11:27.787Z,18.50
2023-05-15T15:14:03.908Z,18.50
2023-05-15T15:16:38.165Z,18.50
2023-05-15T15:19:12.427Z,18.60
2023-05-15T15:21:46.542Z,18.50
2023-05-15T15:24:20.669Z,18.40
2023-05-15T15:26:54.772Z,18.30
2023-05-15T15:29:30.273Z,18.30
2023-05-15T15:32:04.958Z,18.20
2023-05-15T15:34:39.206Z,18.00
2023-05-15T15:37:13.277Z,17.80
2023-05-15T15:39:47.589Z,17.50
2023-05-15T15:42:22.607Z,17.30
2023-05-15T15:44:58.971Z,17.10
2023-05-15T15:47:33.155Z,17.20
2023-05-15T15:50:08.516Z,17.10
2023-05-15T15:52:42.649Z,17.00
2023-05-15T15:55:16.816Z,16.80
2023-05-15T15:57:51.049Z,16.70
2023-05-15T16:00:26.661Z,16.50
2023-05-15T16:03:01.072Z,16.40
2023-05-15T16:05:35.258Z,16.40
2023-05-15T16:08:09.399Z,16.40
2023-05-15T16:10:44.590Z,16.50
2023-05-15T16:13:18.655Z,16.60
2023-05-15T16:15:54.122Z,16.60
2023-05-15T16:18:28.303Z,16.60
2023-05-15T16:21:02.722Z,16.60
2023-05-15T16:23:37.481Z,16.60
2023-05-15T16:26:11.974Z,16.60
2023-05-15T16:28:46.165Z,16.70
2023-05-15T16:31:21.703Z,16.70
2023-05-15T16:33:55.826Z,16.60
2023-05-15T16:36:29.966Z,16.60
2023-05-15T16:39:05.135Z,16.50
2023-05-15T16:41:39.214Z,16.40
2023-05-15T16:44:13.326Z,16.20
2023-05-15T16:46:48.950Z,16.10
2023-05-15T16:49:23.071Z,16.00
2023-05-15T16:51:57.220Z,15.90
2023-05-15T16:54:32.539Z,15.80
2023-05-15T16:57:07.066Z,15.60
2023-05-15T16:59:41.261Z,15.50
2023-05-15T17:02:16.765Z,15.40
2023-05-15T17:04:51.136Z,15.30
2023-05-15T17:07:25.393Z,15.30
2023-05-15T17:09:59.489Z,15.30
2023-05-15T17:12:33.585Z,15.20
2023-05-15T17:15:09.150Z,15.20
2023-05-15T17:17:44.697Z,15.20
2023-05-15T17:20:18.913Z,15.10
2023-05-15T17:22:53.041Z,15.10
2023-05-15T17:25:27.532Z,15.10
2023-05-15T17:28:01.799Z,15.10
2023-05-15T17:30:36.357Z,15.10
2023-05-15T17:33:12.214Z,15.10
2023-05-15T17:35:47.042Z,15.00
2023-05-15T17:38:21.162Z,15.00
2023-05-15T17:40:55.522Z,15.00
2023-05-15T17:43:29.619Z,14.90
2023-05-15T17:46:05.654Z,14.90
2023-05-15T17:48:41.168Z,14.80
2023-05-15T17:51:15.303Z,14.80
2023-05-15T17:53:49.713Z,14.80
2023-05-15T17:56:24.029Z,14.80
2023-05-15T17:58:58.151Z,14.80
2023-05-15T18:01:32.416Z,14.70
2023-05-15T18:04:08.438Z,14.70
2023-05-15T18:06:42.594Z,14.60
2023-05-15T18:09:16.771Z,14.60
2023-05-15T18:11:51.066Z,14.50
2023-05-15T18:14:25.284Z,14.50
2023-05-15T18:16:59.437Z,14.40
2023-05-15T18:19:35.274Z,14.40
2023-05-15T18:22:09.353Z,14.30
2023-05-15T18:24:43.531Z,14.20
2023-05-15T18:27:17.775Z,14.10
2023-05-15T18:29:52.027Z,14.10
2023-05-15T18:32:26.209Z,14.00
2023-05-15T18:35:02.689Z,13.90
2023-05-15T18:37:36.848Z,13.90
2023-05-15T18:40:12.286Z,13.80
2023-05-15T18:42:46.581Z,13.80
2023-05-15T18:45:22.382Z,13.70
2023-05-15T18:47:56.637Z,13.60
2023-05-15T18:50:32.165Z,13.60
2023-05-15T18:53:06.607Z,13.50
2023-05-15T18:55:40.700Z,13.40
2023-05-15T18:58:14.862Z,13.30
2023-05-15T19:00:49.102Z,13.20
2023-05-15T19:03:23.303Z,13.20
2023-05-15T19:05:59.490Z,13.10
2023-05-15T19:08:33.796Z,13.10
2023-05-15T19:11:08.789Z,13.10
2023-05-15T19:13:42.905Z,13.00
2023-05-15T19:16:17.125Z,13.00
2023-05-15T19:18:51.247Z,12.90
2023-05-15T19:21:26.921Z,12.90
2023-05-15T19:24:01.108Z,12.70
2023-05-15T19:26:35.307Z,12.70
2023-05-15T19:29:09.467Z,12.70
2023-05-15T19:31:44.018Z,12.70
2023-05-15T19:34:18.760Z,12.60
2023-05-15T19:36:54.424Z,12.70
2023-05-15T19:39:28.588Z,12.70
2023-05-15T19:42:02.754Z,12.70
2023-05-15T19:44:36.828Z,12.70
2023-05-15T19:47:10.936Z,12.50
2023-05-15T19:49:45.650Z,12.30
2023-05-15T19:52:22.158Z,12.30
2023-05-15T19:54:56.373Z,12.30
2023-05-15T19:57:30.543Z,12.30
2023-05-15T20:00:05.828Z,12.30
2023-05-15T20:02:41.296Z,12.30
2023-05-15T20:05:16.315Z,12.20
2023-05-15T20:07:52.963Z,12.10
2023-05-15T20:10:27.244Z,12.10
2023-05-15T20:13:01.594Z,12.10
2023-05-15T20:15:35.931Z,12.20
2023-05-15T20:18:10.212Z,12.20
2023-05-15T20:20:44.805Z,12.10
2023-05-15T20:23:20.485Z,12.10
2023-05-15T20:25:55.743Z,11.90
2023-05-15T20:28:29.955Z,11.90
2023-05-15T20:31:04.338Z,11.80
2023-05-15T20:33:38.595Z,11.80
2023-05-15T20:36:12.754Z,11.60
2023-05-15T20:38:50.621Z,11.60
2023-05-15T20:41:24.719Z,11.60
2023-05-15T20:43:58.795Z,11.60
2023-05-15T20:46:33.111Z,11.50
2023-05-15T20:49:07.490Z,11.40
2023-05-15T20:51:44.475Z,11.40
2023-05-15T20:54:19.981Z,11.40
2023-05-15T20:56:54.087Z,11.40
2023-05-15T20:59:28.248Z,11.40
2023-05-15T21:02:02.427Z,11.30
2023-05-15T21:04:36.829Z,11.30
2023-05-15T21:07:11.140Z,11.30
2023-05-15T21:09:46.618Z,11.30
2023-05-15T21:12:20.794Z,11.40
2023-05-15T21:14:55.001Z,11.30
2023-05-15T21:17:29.327Z,11.30
2023-05-15T21:20:04.920Z,11.30
2023-05-15T21:22:39.504Z,11.20
2023-05-15T21:25:15.861Z,11.20
2023-05-15T21:27:49.967Z,11.20
2023-05-15T21:30:24.255Z,11.20
2023-05-15T21:32:58.582Z,11.20
2023-05-15T21:35:32.734Z,11.20
2023-05-15T21:38:06.893Z,11.10
2023-05-15T21:40:42.857Z,11.10
2023-05-15T21:43:17.026Z,11.10
2023-05-15T21:45:51.373Z,10.90
2023-05-15T21:48:25.876Z,10.80
2023-05-15T21:50:59.988Z,10.70
2023-05-15T21:53:34.203Z,10.70
2023-05-15T21:56:09.917Z,10.80
2023-05-15T21:58:44.239Z,10.80
2023-05-15T22:01:18.504Z,10.80
2023-05-15T22:03:53.040Z,10.70
2023-05-15T22:06:27.227Z,10.70
2023-05-15T22:09:01.463Z,10.70
2023-05-15T22:11:37.080Z,10.70
2023-05-15T22:14:11.224Z,10.70
2023-05-15T22:16:45.420Z,10.60
2023-05-15T22:19:32.133Z,10.60
2023-05-15T22:22:07.131Z,10.50
2023-05-15T22:24:41.424Z,10.40
2023-05-15T22:27:17.423Z,10.30
2023-05-15T22:29:51.567Z,10.40
2023-05-15T22:32:26.387Z,10.30
2023-05-15T22:35:00.702Z,10.40
2023-05-15T22:37:34.944Z,10.30
2023-05-15T22:40:11.484Z,10.30
2023-05-15T22:42:50.129Z,10.30
2023-05-15T22:45:24.369Z,10.10
2023-05-15T22:47:58.600Z,10.00
2023-05-15T22:50:32.784Z,9.80
2023-05-15T22:53:06.893Z,9.70
2023-05-15T22:55:41.117Z,9.70
2023-05-15T22:58:16.747Z,9.80
2023-05-15T23:00:50.913Z,9.80
2023-05-15T23:03:25.274Z,9.70
2023-05-15T23:05:59.403Z,9.80
2023-05-15T23:08:33.530Z,9.80
2023-05-15T23:11:07.642Z,9.70
2023-05-15T23:13:43.069Z,9.70
2023-05-15T23:16:17.272Z,9.80
2023-05-15T23:18:52.361Z,9.70
2023-05-15T23:21:26.899Z,9.70
2023-05-15T23:24:00.998Z,9.60
2023-05-15T23:26:35.168Z,9.50
2023-05-15T23:29:10.588Z,9.40
2023-05-15T23:31:44.900Z,9.30
2023-05-15T23:34:19.166Z,9.20
2023-05-15T23:36:53.242Z,9.30
2023-05-15T23:39:27.389Z,9.20
2023-05-15T23:42:01.501Z,9.10
2023-05-15T23:44:37.021Z,9.10
2023-05-15T23:47:11.477Z,9.10
2023-05-15T23:49:45.656Z,9.20
2023-05-15T23:52:19.768Z,9.20
2023-05-15T23:54:53.827Z,9.10
2023-05-15T23:57:27.966Z,9.10
